sensor_id;sensor_type;location;lat;lon;timestamp;P1;durP1;ratioP1;P2;durP2;ratioP2
36651;SDS011;53334;51.976;20.144;2023-08-24T00:02:18;4.75;;;3.42;;
36651;SDS011;53334;51.976;20.144;2023-08-24T00:04:51;6.07;;;4.10;;
36651;SDS011;53334;51.976;20.144;2023-08-24T00:07:24;5.32;;;3.78;;
36651;SDS011;53334;51.976;20.144;2023-08-24T00:12:32;5.57;;;4.10;;
36651;SDS011;53334;51.976;20.144;2023-08-24T00:15:07;5.90;;;4.05;;
36651;SDS011;53334;51.976;20.144;2023-08-24T00:17:43;6.53;;;4.38;;
36651;SDS011;53334;51.976;20.144;2023-08-24T00:20:16;12.70;;;5.20;;
36651;SDS011;53334;51.976;20.144;2023-08-24T00:22:51;9.55;;;5.13;;
36651;SDS011;53334;51.976;20.144;2023-08-24T00:25:24;8.15;;;5.15;;
36651;SDS011;53334;51.976;20.144;2023-08-24T00:27:58;15.05;;;4.97;;
36651;SDS011;53334;51.976;20.144;2023-08-24T00:30:31;8.90;;;4.43;;
36651;SDS011;53334;51.976;20.144;2023-08-24T00:33:06;9.57;;;4.15;;
36651;SDS011;53334;51.976;20.144;2023-08-24T00:35:39;6.97;;;4.97;;
36651;SDS011;53334;51.976;20.144;2023-08-24T00:38:13;6.00;;;4.28;;
36651;SDS011;53334;51.976;20.144;2023-08-24T00:40:52;5.47;;;4.57;;
36651;SDS011;53334;51.976;20.144;2023-08-24T00:43:25;5.82;;;4.30;;
36651;SDS011;53334;51.976;20.144;2023-08-24T00:45:59;5.60;;;3.50;;
36651;SDS011;53334;51.976;20.144;2023-08-24T00:48:37;8.10;;;4.22;;
36651;SDS011;53334;51.976;20.144;2023-08-24T00:51:11;6.18;;;4.65;;
36651;SDS011;53334;51.976;20.144;2023-08-24T00:53:44;7.43;;;4.88;;
36651;SDS011;53334;51.976;20.144;2023-08-24T00:56:18;7.00;;;4.60;;
36651;SDS011;53334;51.976;20.144;2023-08-24T00:58:56;6.38;;;4.22;;
36651;SDS011;53334;51.976;20.144;2023-08-24T01:01:31;4.78;;;4.30;;
36651;SDS011;53334;51.976;20.144;2023-08-24T01:04:07;6.85;;;4.43;;
36651;SDS011;53334;51.976;20.144;2023-08-24T01:06:42;6.68;;;3.70;;
36651;SDS011;53334;51.976;20.144;2023-08-24T01:09:15;8.95;;;4.25;;
36651;SDS011;53334;51.976;20.144;2023-08-24T01:11:54;4.90;;;4.15;;
36651;SDS011;53334;51.976;20.144;2023-08-24T01:14:36;10.85;;;4.22;;
36651;SDS011;53334;51.976;20.144;2023-08-24T01:17:21;5.68;;;4.38;;
36651;SDS011;53334;51.976;20.144;2023-08-24T01:20:01;5.95;;;4.00;;
36651;SDS011;53334;51.976;20.144;2023-08-24T01:22:37;7.63;;;4.35;;
36651;SDS011;53334;51.976;20.144;2023-08-24T01:25:20;8.00;;;4.70;;
36651;SDS011;53334;51.976;20.144;2023-08-24T01:28:01;5.03;;;3.92;;
36651;SDS011;53334;51.976;20.144;2023-08-24T01:30:37;4.90;;;3.83;;
36651;SDS011;53334;51.976;20.144;2023-08-24T01:33:11;5.43;;;4.72;;
36651;SDS011;53334;51.976;20.144;2023-08-24T01:35:45;11.07;;;4.85;;
36651;SDS011;53334;51.976;20.144;2023-08-24T01:38:18;7.05;;;4.30;;
36651;SDS011;53334;51.976;20.144;2023-08-24T01:40:53;6.07;;;4.85;;
36651;SDS011;53334;51.976;20.144;2023-08-24T01:43:33;5.57;;;3.88;;
36651;SDS011;53334;51.976;20.144;2023-08-24T01:46:12;5.82;;;3.70;;
36651;SDS011;53334;51.976;20.144;2023-08-24T01:48:48;4.68;;;4.13;;
36651;SDS011;53334;51.976;20.144;2023-08-24T01:51:24;8.73;;;3.97;;
36651;SDS011;53334;51.976;20.144;2023-08-24T01:53:58;4.25;;;3.80;;
36651;SDS011;53334;51.976;20.144;2023-08-24T01:59:07;7.37;;;3.97;;
36651;SDS011;53334;51.976;20.144;2023-08-24T02:01:41;5.13;;;3.92;;
36651;SDS011;53334;51.976;20.144;2023-08-24T02:04:14;4.53;;;3.83;;
36651;SDS011;53334;51.976;20.144;2023-08-24T02:06:48;5.90;;;3.90;;
36651;SDS011;53334;51.976;20.144;2023-08-24T02:09:22;5.13;;;4.03;;
36651;SDS011;53334;51.976;20.144;2023-08-24T02:11:56;5.20;;;4.07;;
36651;SDS011;53334;51.976;20.144;2023-08-24T02:14:31;3.92;;;3.53;;
36651;SDS011;53334;51.976;20.144;2023-08-24T02:17:04;4.38;;;3.97;;
36651;SDS011;53334;51.976;20.144;2023-08-24T02:19:37;5.88;;;4.07;;
36651;SDS011;53334;51.976;20.144;2023-08-24T02:22:11;3.90;;;3.55;;
36651;SDS011;53334;51.976;20.144;2023-08-24T02:24:44;5.15;;;3.70;;
36651;SDS011;53334;51.976;20.144;2023-08-24T02:27:18;6.43;;;4.30;;
36651;SDS011;53334;51.976;20.144;2023-08-24T02:29:52;8.25;;;4.05;;
36651;SDS011;53334;51.976;20.144;2023-08-24T02:32:26;5.20;;;4.28;;
36651;SDS011;53334;51.976;20.144;2023-08-24T02:34:59;4.93;;;4.28;;
36651;SDS011;53334;51.976;20.144;2023-08-24T02:37:34;5.80;;;4.07;;
36651;SDS011;53334;51.976;20.144;2023-08-24T02:40:08;4.78;;;3.53;;
36651;SDS011;53334;51.976;20.144;2023-08-24T02:45:16;6.32;;;4.25;;
36651;SDS011;53334;51.976;20.144;2023-08-24T02:47:49;7.13;;;3.38;;
36651;SDS011;53334;51.976;20.144;2023-08-24T02:50:23;7.10;;;3.88;;
36651;SDS011;53334;51.976;20.144;2023-08-24T02:52:56;5.00;;;3.65;;
36651;SDS011;53334;51.976;20.144;2023-08-24T02:55:31;5.88;;;4.35;;
36651;SDS011;53334;51.976;20.144;2023-08-24T02:58:05;5.80;;;4.18;;
36651;SDS011;53334;51.976;20.144;2023-08-24T03:00:39;4.82;;;3.95;;
36651;SDS011;53334;51.976;20.144;2023-08-24T03:03:13;7.32;;;4.50;;
36651;SDS011;53334;51.976;20.144;2023-08-24T03:05:55;5.15;;;3.58;;
36651;SDS011;53334;51.976;20.144;2023-08-24T03:08:31;4.35;;;3.72;;
36651;SDS011;53334;51.976;20.144;2023-08-24T03:11:05;3.58;;;3.28;;
36651;SDS011;53334;51.976;20.144;2023-08-24T03:13:38;3.90;;;3.60;;
36651;SDS011;53334;51.976;20.144;2023-08-24T03:16:13;4.55;;;3.53;;
36651;SDS011;53334;51.976;20.144;2023-08-24T03:18:47;3.95;;;3.08;;
36651;SDS011;53334;51.976;20.144;2023-08-24T03:21:22;6.55;;;4.03;;
36651;SDS011;53334;51.976;20.144;2023-08-24T03:23:55;4.90;;;3.80;;
36651;SDS011;53334;51.976;20.144;2023-08-24T03:26:28;4.38;;;3.22;;
36651;SDS011;53334;51.976;20.144;2023-08-24T03:29:01;6.13;;;4.00;;
36651;SDS011;53334;51.976;20.144;2023-08-24T03:36:43;8.55;;;4.47;;
36651;SDS011;53334;51.976;20.144;2023-08-24T03:39:16;5.72;;;4.50;;
36651;SDS011;53334;51.976;20.144;2023-08-24T03:41:49;3.92;;;3.45;;
36651;SDS011;53334;51.976;20.144;2023-08-24T03:44:23;4.15;;;3.75;;
36651;SDS011;53334;51.976;20.144;2023-08-24T03:46:57;4.05;;;3.50;;
36651;SDS011;53334;51.976;20.144;2023-08-24T03:49:31;3.97;;;3.55;;
36651;SDS011;53334;51.976;20.144;2023-08-24T03:52:04;7.45;;;3.85;;
36651;SDS011;53334;51.976;20.144;2023-08-24T03:54:37;5.85;;;4.00;;
36651;SDS011;53334;51.976;20.144;2023-08-24T03:57:11;6.18;;;3.60;;
36651;SDS011;53334;51.976;20.144;2023-08-24T03:59:44;4.53;;;3.80;;
36651;SDS011;53334;51.976;20.144;2023-08-24T04:02:18;4.32;;;3.35;;
36651;SDS011;53334;51.976;20.144;2023-08-24T04:04:52;4.32;;;3.45;;
36651;SDS011;53334;51.976;20.144;2023-08-24T04:07:25;5.15;;;3.22;;
36651;SDS011;53334;51.976;20.144;2023-08-24T04:09:58;4.05;;;3.63;;
36651;SDS011;53334;51.976;20.144;2023-08-24T04:12:32;5.30;;;3.90;;
36651;SDS011;53334;51.976;20.144;2023-08-24T04:15:06;5.18;;;3.80;;
36651;SDS011;53334;51.976;20.144;2023-08-24T04:17:41;3.85;;;3.30;;
36651;SDS011;53334;51.976;20.144;2023-08-24T04:20:15;4.15;;;3.05;;
36651;SDS011;53334;51.976;20.144;2023-08-24T04:22:48;4.70;;;3.97;;
36651;SDS011;53334;51.976;20.144;2023-08-24T04:25:22;4.05;;;3.47;;
36651;SDS011;53334;51.976;20.144;2023-08-24T04:27:55;5.00;;;3.45;;
36651;SDS011;53334;51.976;20.144;2023-08-24T04:30:28;5.00;;;4.05;;
36651;SDS011;53334;51.976;20.144;2023-08-24T04:33:03;3.65;;;3.33;;
36651;SDS011;53334;51.976;20.144;2023-08-24T04:35:37;3.80;;;3.40;;
36651;SDS011;53334;51.976;20.144;2023-08-24T04:38:10;6.28;;;3.25;;
36651;SDS011;53334;51.976;20.144;2023-08-24T04:40:54;5.95;;;4.13;;
36651;SDS011;53334;51.976;20.144;2023-08-24T04:43:28;5.07;;;3.35;;
36651;SDS011;53334;51.976;20.144;2023-08-24T04:46:01;3.88;;;3.33;;
36651;SDS011;53334;51.976;20.144;2023-08-24T04:48:36;4.50;;;3.45;;
36651;SDS011;53334;51.976;20.144;2023-08-24T04:51:09;3.60;;;3.30;;
36651;SDS011;53334;51.976;20.144;2023-08-24T04:53:43;3.85;;;3.28;;
36651;SDS011;53334;51.976;20.144;2023-08-24T04:56:16;3.40;;;3.10;;
36651;SDS011;53334;51.976;20.144;2023-08-24T04:58:53;6.03;;;3.10;;
36651;SDS011;53334;51.976;20.144;2023-08-24T05:01:28;5.88;;;3.33;;
36651;SDS011;53334;51.976;20.144;2023-08-24T05:04:04;7.95;;;4.00;;
36651;SDS011;53334;51.976;20.144;2023-08-24T05:06:37;25.00;;;7.38;;
36651;SDS011;53334;51.976;20.144;2023-08-24T05:09:11;38.92;;;9.23;;
36651;SDS011;53334;51.976;20.144;2023-08-24T05:11:45;41.15;;;12.30;;
36651;SDS011;53334;51.976;20.144;2023-08-24T05:14:18;31.38;;;11.73;;
36651;SDS011;53334;51.976;20.144;2023-08-24T05:16:51;53.78;;;11.40;;
36651;SDS011;53334;51.976;20.144;2023-08-24T05:19:26;45.78;;;10.38;;
36651;SDS011;53334;51.976;20.144;2023-08-24T05:22:00;40.53;;;12.30;;
36651;SDS011;53334;51.976;20.144;2023-08-24T05:24:34;41.30;;;10.23;;
36651;SDS011;53334;51.976;20.144;2023-08-24T05:27:07;33.45;;;10.35;;
36651;SDS011;53334;51.976;20.144;2023-08-24T05:29:40;29.20;;;8.90;;
36651;SDS011;53334;51.976;20.144;2023-08-24T05:32:14;23.80;;;8.38;;
36651;SDS011;53334;51.976;20.144;2023-08-24T05:34:48;25.48;;;8.35;;
36651;SDS011;53334;51.976;20.144;2023-08-24T05:37:22;26.95;;;7.78;;
36651;SDS011;53334;51.976;20.144;2023-08-24T05:39:55;27.70;;;8.30;;
36651;SDS011;53334;51.976;20.144;2023-08-24T05:42:29;20.70;;;7.43;;
36651;SDS011;53334;51.976;20.144;2023-08-24T05:45:02;28.90;;;7.88;;
36651;SDS011;53334;51.976;20.144;2023-08-24T05:47:36;25.85;;;7.88;;
36651;SDS011;53334;51.976;20.144;2023-08-24T05:50:11;19.70;;;6.95;;
36651;SDS011;53334;51.976;20.144;2023-08-24T05:52:44;17.70;;;7.60;;
36651;SDS011;53334;51.976;20.144;2023-08-24T05:55:17;18.02;;;6.85;;
36651;SDS011;53334;51.976;20.144;2023-08-24T05:57:51;17.73;;;6.57;;
36651;SDS011;53334;51.976;20.144;2023-08-24T06:00:24;19.13;;;6.85;;
36651;SDS011;53334;51.976;20.144;2023-08-24T06:02:57;19.90;;;6.20;;
36651;SDS011;53334;51.976;20.144;2023-08-24T06:05:32;14.00;;;5.63;;
36651;SDS011;53334;51.976;20.144;2023-08-24T06:08:06;17.65;;;6.47;;
36651;SDS011;53334;51.976;20.144;2023-08-24T06:10:39;15.20;;;5.90;;
36651;SDS011;53334;51.976;20.144;2023-08-24T06:13:12;15.23;;;6.00;;
36651;SDS011;53334;51.976;20.144;2023-08-24T06:15:45;14.85;;;5.05;;
36651;SDS011;53334;51.976;20.144;2023-08-24T06:18:19;11.48;;;6.03;;
36651;SDS011;53334;51.976;20.144;2023-08-24T06:20:54;16.58;;;5.72;;
36651;SDS011;53334;51.976;20.144;2023-08-24T06:23:27;9.35;;;5.35;;
36651;SDS011;53334;51.976;20.144;2023-08-24T06:26:00;17.67;;;5.38;;
36651;SDS011;53334;51.976;20.144;2023-08-24T06:28:34;10.27;;;5.32;;
36651;SDS011;53334;51.976;20.144;2023-08-24T06:31:07;13.13;;;5.50;;
36651;SDS011;53334;51.976;20.144;2023-08-24T06:33:40;10.80;;;5.97;;
36651;SDS011;53334;51.976;20.144;2023-08-24T06:36:15;12.98;;;5.13;;
36651;SDS011;53334;51.976;20.144;2023-08-24T06:38:48;12.07;;;5.38;;
36651;SDS011;53334;51.976;20.144;2023-08-24T06:41:21;9.25;;;4.95;;
36651;SDS011;53334;51.976;20.144;2023-08-24T06:43:55;10.05;;;5.20;;
36651;SDS011;53334;51.976;20.144;2023-08-24T06:46:30;12.43;;;5.25;;
36651;SDS011;53334;51.976;20.144;2023-08-24T06:49:03;10.60;;;4.60;;
36651;SDS011;53334;51.976;20.144;2023-08-24T06:51:38;10.43;;;5.53;;
36651;SDS011;53334;51.976;20.144;2023-08-24T06:54:11;11.20;;;5.35;;
36651;SDS011;53334;51.976;20.144;2023-08-24T06:56:46;14.02;;;5.68;;
36651;SDS011;53334;51.976;20.144;2023-08-24T06:59:19;11.30;;;5.45;;
36651;SDS011;53334;51.976;20.144;2023-08-24T07:01:52;9.05;;;5.20;;
36651;SDS011;53334;51.976;20.144;2023-08-24T07:04:25;6.97;;;4.43;;
36651;SDS011;53334;51.976;20.144;2023-08-24T07:09:33;9.98;;;4.20;;
36651;SDS011;53334;51.976;20.144;2023-08-24T07:12:07;6.97;;;4.32;;
36651;SDS011;53334;51.976;20.144;2023-08-24T07:14:41;8.55;;;4.38;;
36651;SDS011;53334;51.976;20.144;2023-08-24T07:17:15;8.85;;;4.57;;
36651;SDS011;53334;51.976;20.144;2023-08-24T07:19:48;8.70;;;4.90;;
36651;SDS011;53334;51.976;20.144;2023-08-24T07:22:23;8.93;;;5.00;;
36651;SDS011;53334;51.976;20.144;2023-08-24T07:24:58;9.90;;;4.90;;
36651;SDS011;53334;51.976;20.144;2023-08-24T07:27:36;5.68;;;3.92;;
36651;SDS011;53334;51.976;20.144;2023-08-24T07:30:10;8.73;;;4.15;;
36651;SDS011;53334;51.976;20.144;2023-08-24T07:33:03;7.35;;;4.00;;
36651;SDS011;53334;51.976;20.144;2023-08-24T07:35:36;11.30;;;5.13;;
36651;SDS011;53334;51.976;20.144;2023-08-24T07:38:12;7.72;;;4.18;;
36651;SDS011;53334;51.976;20.144;2023-08-24T07:40:45;6.57;;;4.28;;
36651;SDS011;53334;51.976;20.144;2023-08-24T07:43:18;8.63;;;3.95;;
36651;SDS011;53334;51.976;20.144;2023-08-24T07:45:52;8.80;;;3.67;;
36651;SDS011;53334;51.976;20.144;2023-08-24T07:48:26;5.97;;;4.13;;
36651;SDS011;53334;51.976;20.144;2023-08-24T07:50:59;8.82;;;4.63;;
36651;SDS011;53334;51.976;20.144;2023-08-24T07:53:34;8.75;;;3.85;;
36651;SDS011;53334;51.976;20.144;2023-08-24T07:56:07;7.47;;;4.20;;
36651;SDS011;53334;51.976;20.144;2023-08-24T07:58:41;6.03;;;3.92;;
36651;SDS011;53334;51.976;20.144;2023-08-24T08:01:14;4.47;;;4.07;;
36651;SDS011;53334;51.976;20.144;2023-08-24T08:03:47;5.70;;;3.60;;
36651;SDS011;53334;51.976;20.144;2023-08-24T08:06:20;14.40;;;4.40;;
36651;SDS011;53334;51.976;20.144;2023-08-24T08:08:57;6.03;;;3.83;;
36651;SDS011;53334;51.976;20.144;2023-08-24T08:11:30;11.68;;;4.32;;
36651;SDS011;53334;51.976;20.144;2023-08-24T08:14:04;8.52;;;4.00;;
36651;SDS011;53334;51.976;20.144;2023-08-24T08:16:37;6.18;;;3.08;;
36651;SDS011;53334;51.976;20.144;2023-08-24T08:19:10;8.98;;;3.75;;
36651;SDS011;53334;51.976;20.144;2023-08-24T08:21:44;6.63;;;4.03;;
36651;SDS011;53334;51.976;20.144;2023-08-24T08:24:18;8.00;;;4.25;;
36651;SDS011;53334;51.976;20.144;2023-08-24T08:26:56;8.93;;;3.25;;
36651;SDS011;53334;51.976;20.144;2023-08-24T08:29:30;7.22;;;3.92;;
36651;SDS011;53334;51.976;20.144;2023-08-24T08:32:03;11.23;;;4.05;;
36651;SDS011;53334;51.976;20.144;2023-08-24T08:34:37;8.55;;;3.45;;
36651;SDS011;53334;51.976;20.144;2023-08-24T08:37:10;7.10;;;3.30;;
36651;SDS011;53334;51.976;20.144;2023-08-24T08:39:45;11.23;;;4.25;;
36651;SDS011;53334;51.976;20.144;2023-08-24T08:42:18;4.72;;;3.33;;
36651;SDS011;53334;51.976;20.144;2023-08-24T08:44:52;4.22;;;3.78;;
36651;SDS011;53334;51.976;20.144;2023-08-24T08:47:27;4.88;;;3.70;;
36651;SDS011;53334;51.976;20.144;2023-08-24T08:50:00;5.68;;;3.42;;
36651;SDS011;53334;51.976;20.144;2023-08-24T08:52:35;8.38;;;3.42;;
36651;SDS011;53334;51.976;20.144;2023-08-24T08:55:10;5.72;;;2.70;;
36651;SDS011;53334;51.976;20.144;2023-08-24T08:57:44;4.93;;;2.67;;
36651;SDS011;53334;51.976;20.144;2023-08-24T09:00:21;3.83;;;3.10;;
36651;SDS011;53334;51.976;20.144;2023-08-24T09:02:56;4.65;;;3.00;;
36651;SDS011;53334;51.976;20.144;2023-08-24T09:05:30;7.78;;;3.80;;
36651;SDS011;53334;51.976;20.144;2023-08-24T09:08:05;7.30;;;3.50;;
36651;SDS011;53334;51.976;20.144;2023-08-24T09:10:40;5.95;;;3.05;;
36651;SDS011;53334;51.976;20.144;2023-08-24T09:13:13;5.80;;;3.13;;
36651;SDS011;53334;51.976;20.144;2023-08-24T09:15:46;5.03;;;2.72;;
36651;SDS011;53334;51.976;20.144;2023-08-24T09:18:23;6.05;;;3.15;;
36651;SDS011;53334;51.976;20.144;2023-08-24T09:21:08;4.43;;;2.85;;
36651;SDS011;53334;51.976;20.144;2023-08-24T09:26:23;3.92;;;3.28;;
36651;SDS011;53334;51.976;20.144;2023-08-24T09:29:00;7.18;;;2.90;;
36651;SDS011;53334;51.976;20.144;2023-08-24T09:31:42;5.63;;;2.63;;
36651;SDS011;53334;51.976;20.144;2023-08-24T09:36:52;4.22;;;2.85;;
36651;SDS011;53334;51.976;20.144;2023-08-24T09:39:25;5.28;;;2.92;;
36651;SDS011;53334;51.976;20.144;2023-08-24T09:42:01;6.88;;;3.00;;
36651;SDS011;53334;51.976;20.144;2023-08-24T09:44:36;3.92;;;2.53;;
36651;SDS011;53334;51.976;20.144;2023-08-24T09:47:09;4.40;;;2.80;;
36651;SDS011;53334;51.976;20.144;2023-08-24T09:49:43;6.35;;;2.80;;
36651;SDS011;53334;51.976;20.144;2023-08-24T09:52:17;4.10;;;2.80;;
36651;SDS011;53334;51.976;20.144;2023-08-24T09:54:51;9.93;;;3.17;;
36651;SDS011;53334;51.976;20.144;2023-08-24T09:57:27;8.93;;;2.88;;
36651;SDS011;53334;51.976;20.144;2023-08-24T10:00:00;3.78;;;2.90;;
36651;SDS011;53334;51.976;20.144;2023-08-24T10:02:46;11.60;;;3.58;;
36651;SDS011;53334;51.976;20.144;2023-08-24T10:05:23;3.40;;;2.33;;
36651;SDS011;53334;51.976;20.144;2023-08-24T10:08:00;6.47;;;2.60;;
36651;SDS011;53334;51.976;20.144;2023-08-24T10:10:34;7.63;;;3.03;;
36651;SDS011;53334;51.976;20.144;2023-08-24T10:13:11;9.85;;;3.60;;
36651;SDS011;53334;51.976;20.144;2023-08-24T10:15:50;7.68;;;2.70;;
36651;SDS011;53334;51.976;20.144;2023-08-24T10:18:24;8.98;;;3.20;;
36651;SDS011;53334;51.976;20.144;2023-08-24T10:20:58;9.25;;;3.42;;
36651;SDS011;53334;51.976;20.144;2023-08-24T10:23:33;5.40;;;2.63;;
36651;SDS011;53334;51.976;20.144;2023-08-24T10:26:07;5.13;;;3.10;;
36651;SDS011;53334;51.976;20.144;2023-08-24T10:28:43;3.78;;;2.65;;
36651;SDS011;53334;51.976;20.144;2023-08-24T10:31:17;5.95;;;3.00;;
36651;SDS011;53334;51.976;20.144;2023-08-24T10:33:50;14.60;;;3.30;;
36651;SDS011;53334;51.976;20.144;2023-08-24T10:36:26;8.27;;;3.00;;
36651;SDS011;53334;51.976;20.144;2023-08-24T10:39:02;3.83;;;2.80;;
36651;SDS011;53334;51.976;20.144;2023-08-24T10:41:47;4.15;;;2.50;;
36651;SDS011;53334;51.976;20.144;2023-08-24T10:44:24;6.40;;;2.63;;
36651;SDS011;53334;51.976;20.144;2023-08-24T10:49:39;8.38;;;3.28;;
36651;SDS011;53334;51.976;20.144;2023-08-24T10:54:50;10.93;;;2.95;;
36651;SDS011;53334;51.976;20.144;2023-08-24T10:57:26;11.65;;;3.25;;
36651;SDS011;53334;51.976;20.144;2023-08-24T11:00:08;6.15;;;2.90;;
36651;SDS011;53334;51.976;20.144;2023-08-24T11:02:43;7.40;;;3.42;;
36651;SDS011;53334;51.976;20.144;2023-08-24T11:05:19;7.32;;;3.40;;
36651;SDS011;53334;51.976;20.144;2023-08-24T11:07:54;3.95;;;2.85;;
36651;SDS011;53334;51.976;20.144;2023-08-24T11:10:30;12.90;;;3.17;;
36651;SDS011;53334;51.976;20.144;2023-08-24T11:13:09;5.03;;;2.88;;
36651;SDS011;53334;51.976;20.144;2023-08-24T11:15:45;3.78;;;2.78;;
36651;SDS011;53334;51.976;20.144;2023-08-24T11:18:23;4.22;;;2.72;;
36651;SDS011;53334;51.976;20.144;2023-08-24T11:20:59;5.50;;;3.20;;
36651;SDS011;53334;51.976;20.144;2023-08-24T11:23:34;8.95;;;3.33;;
36651;SDS011;53334;51.976;20.144;2023-08-24T11:28:41;8.45;;;2.97;;
36651;SDS011;53334;51.976;20.144;2023-08-24T11:31:16;5.72;;;2.85;;
36651;SDS011;53334;51.976;20.144;2023-08-24T11:33:53;3.67;;;2.90;;
36651;SDS011;53334;51.976;20.144;2023-08-24T11:36:27;4.63;;;3.03;;
36651;SDS011;53334;51.976;20.144;2023-08-24T11:39:01;5.55;;;3.00;;
36651;SDS011;53334;51.976;20.144;2023-08-24T11:41:34;3.30;;;3.00;;
36651;SDS011;53334;51.976;20.144;2023-08-24T11:44:07;6.80;;;3.38;;
36651;SDS011;53334;51.976;20.144;2023-08-24T11:47:00;3.03;;;2.70;;
36651;SDS011;53334;51.976;20.144;2023-08-24T11:49:34;4.45;;;3.25;;
36651;SDS011;53334;51.976;20.144;2023-08-24T11:52:08;4.20;;;3.63;;
36651;SDS011;53334;51.976;20.144;2023-08-24T11:54:41;6.78;;;3.47;;
36651;SDS011;53334;51.976;20.144;2023-08-24T11:57:15;13.10;;;3.63;;
36651;SDS011;53334;51.976;20.144;2023-08-24T11:59:49;10.27;;;4.68;;
36651;SDS011;53334;51.976;20.144;2023-08-24T12:02:24;7.65;;;3.38;;
36651;SDS011;53334;51.976;20.144;2023-08-24T12:04:57;7.82;;;3.50;;
36651;SDS011;53334;51.976;20.144;2023-08-24T12:10:05;61.33;;;25.38;;
36651;SDS011;53334;51.976;20.144;2023-08-24T12:12:39;99.28;;;44.38;;
36651;SDS011;53334;51.976;20.144;2023-08-24T12:15:16;172.80;;;76.38;;
36651;SDS011;53334;51.976;20.144;2023-08-24T12:17:52;207.38;;;91.65;;
36651;SDS011;53334;51.976;20.144;2023-08-24T12:20:26;230.30;;;105.15;;
36651;SDS011;53334;51.976;20.144;2023-08-24T12:22:59;204.00;;;99.05;;
36651;SDS011;53334;51.976;20.144;2023-08-24T12:25:35;308.70;;;131.40;;
36651;SDS011;53334;51.976;20.144;2023-08-24T12:28:10;242.13;;;105.88;;
36651;SDS011;53334;51.976;20.144;2023-08-24T12:30:45;201.95;;;92.43;;
36651;SDS011;53334;51.976;20.144;2023-08-24T12:33:25;171.85;;;79.07;;
36651;SDS011;53334;51.976;20.144;2023-08-24T12:35:59;155.70;;;67.28;;
36651;SDS011;53334;51.976;20.144;2023-08-24T12:38:33;139.00;;;61.97;;
36651;SDS011;53334;51.976;20.144;2023-08-24T12:41:07;128.52;;;60.10;;
36651;SDS011;53334;51.976;20.144;2023-08-24T12:43:40;106.97;;;50.22;;
36651;SDS011;53334;51.976;20.144;2023-08-24T12:46:18;98.97;;;47.90;;
36651;SDS011;53334;51.976;20.144;2023-08-24T12:48:52;81.43;;;38.90;;
36651;SDS011;53334;51.976;20.144;2023-08-24T12:51:27;86.60;;;39.22;;
36651;SDS011;53334;51.976;20.144;2023-08-24T12:54:00;69.70;;;33.72;;
36651;SDS011;53334;51.976;20.144;2023-08-24T12:56:34;62.15;;;32.75;;
36651;SDS011;53334;51.976;20.144;2023-08-24T12:59:07;62.92;;;33.20;;
36651;SDS011;53334;51.976;20.144;2023-08-24T13:04:16;61.83;;;28.20;;
36651;SDS011;53334;51.976;20.144;2023-08-24T13:06:49;62.47;;;30.08;;
36651;SDS011;53334;51.976;20.144;2023-08-24T13:09:22;48.53;;;26.60;;
36651;SDS011;53334;51.976;20.144;2023-08-24T13:11:55;50.70;;;25.20;;
36651;SDS011;53334;51.976;20.144;2023-08-24T13:14:29;57.35;;;25.05;;
36651;SDS011;53334;51.976;20.144;2023-08-24T13:17:02;48.72;;;25.40;;
36651;SDS011;53334;51.976;20.144;2023-08-24T13:19:37;50.30;;;23.90;;
36651;SDS011;53334;51.976;20.144;2023-08-24T13:22:11;50.05;;;26.17;;
36651;SDS011;53334;51.976;20.144;2023-08-24T13:24:44;42.17;;;21.52;;
36651;SDS011;53334;51.976;20.144;2023-08-24T13:27:17;50.13;;;20.75;;
36651;SDS011;53334;51.976;20.144;2023-08-24T13:29:51;53.25;;;23.17;;
36651;SDS011;53334;51.976;20.144;2023-08-24T13:32:28;48.15;;;20.50;;
36651;SDS011;53334;51.976;20.144;2023-08-24T13:35:03;39.13;;;18.92;;
36651;SDS011;53334;51.976;20.144;2023-08-24T13:37:39;40.78;;;18.42;;
36651;SDS011;53334;51.976;20.144;2023-08-24T13:40:12;32.75;;;17.42;;
36651;SDS011;53334;51.976;20.144;2023-08-24T13:42:46;36.65;;;17.52;;
36651;SDS011;53334;51.976;20.144;2023-08-24T13:45:19;36.30;;;16.50;;
36651;SDS011;53334;51.976;20.144;2023-08-24T13:47:53;39.50;;;18.83;;
36651;SDS011;53334;51.976;20.144;2023-08-24T13:50:27;35.83;;;16.95;;
36651;SDS011;53334;51.976;20.144;2023-08-24T13:53:00;32.55;;;16.23;;
36651;SDS011;53334;51.976;20.144;2023-08-24T13:55:34;35.97;;;16.50;;
36651;SDS011;53334;51.976;20.144;2023-08-24T13:58:08;30.38;;;15.13;;
36651;SDS011;53334;51.976;20.144;2023-08-24T14:00:42;29.73;;;15.20;;
36651;SDS011;53334;51.976;20.144;2023-08-24T14:05:50;31.05;;;15.32;;
36651;SDS011;53334;51.976;20.144;2023-08-24T14:08:27;32.35;;;15.48;;
36651;SDS011;53334;51.976;20.144;2023-08-24T14:11:01;27.30;;;14.20;;
36651;SDS011;53334;51.976;20.144;2023-08-24T14:13:34;24.08;;;13.25;;
36651;SDS011;53334;51.976;20.144;2023-08-24T14:16:07;27.80;;;14.00;;
36651;SDS011;53334;51.976;20.144;2023-08-24T14:18:41;27.70;;;13.43;;
36651;SDS011;53334;51.976;20.144;2023-08-24T14:21:16;24.20;;;13.18;;
36651;SDS011;53334;51.976;20.144;2023-08-24T14:24:02;26.40;;;14.18;;
36651;SDS011;53334;51.976;20.144;2023-08-24T14:26:35;24.67;;;13.00;;
36651;SDS011;53334;51.976;20.144;2023-08-24T14:29:11;26.95;;;12.88;;
36651;SDS011;53334;51.976;20.144;2023-08-24T14:31:45;28.40;;;13.20;;
36651;SDS011;53334;51.976;20.144;2023-08-24T14:34:18;26.02;;;12.40;;
36651;SDS011;53334;51.976;20.144;2023-08-24T14:36:53;24.27;;;13.07;;
36651;SDS011;53334;51.976;20.144;2023-08-24T14:39:26;23.70;;;12.35;;
36651;SDS011;53334;51.976;20.144;2023-08-24T14:41:59;18.90;;;11.00;;
36651;SDS011;53334;51.976;20.144;2023-08-24T14:44:34;22.35;;;11.85;;
36651;SDS011;53334;51.976;20.144;2023-08-24T14:47:08;21.70;;;11.00;;
36651;SDS011;53334;51.976;20.144;2023-08-24T14:49:41;18.30;;;11.40;;
36651;SDS011;53334;51.976;20.144;2023-08-24T14:52:16;20.85;;;11.20;;
36651;SDS011;53334;51.976;20.144;2023-08-24T14:54:49;19.10;;;10.70;;
36651;SDS011;53334;51.976;20.144;2023-08-24T14:57:22;19.77;;;11.02;;
36651;SDS011;53334;51.976;20.144;2023-08-24T14:59:55;17.20;;;9.40;;
36651;SDS011;53334;51.976;20.144;2023-08-24T15:02:29;14.77;;;9.40;;
36651;SDS011;53334;51.976;20.144;2023-08-24T15:05:06;15.98;;;9.70;;
36651;SDS011;53334;51.976;20.144;2023-08-24T15:07:44;15.93;;;9.63;;
36651;SDS011;53334;51.976;20.144;2023-08-24T15:10:17;13.32;;;8.95;;
36651;SDS011;53334;51.976;20.144;2023-08-24T15:12:53;17.15;;;9.50;;
36651;SDS011;53334;51.976;20.144;2023-08-24T15:15:35;17.67;;;9.45;;
36651;SDS011;53334;51.976;20.144;2023-08-24T15:18:17;17.67;;;8.82;;
36651;SDS011;53334;51.976;20.144;2023-08-24T15:20:50;17.33;;;9.82;;
36651;SDS011;53334;51.976;20.144;2023-08-24T15:23:25;18.20;;;9.15;;
36651;SDS011;53334;51.976;20.144;2023-08-24T15:26:00;16.30;;;9.02;;
36651;SDS011;53334;51.976;20.144;2023-08-24T15:28:37;14.05;;;7.80;;
36651;SDS011;53334;51.976;20.144;2023-08-24T15:31:40;17.52;;;9.02;;
36651;SDS011;53334;51.976;20.144;2023-08-24T15:34:14;11.73;;;7.47;;
36651;SDS011;53334;51.976;20.144;2023-08-24T15:36:50;13.70;;;9.10;;
36651;SDS011;53334;51.976;20.144;2023-08-24T15:39:26;12.55;;;7.72;;
36651;SDS011;53334;51.976;20.144;2023-08-24T15:41:59;14.18;;;8.43;;
36651;SDS011;53334;51.976;20.144;2023-08-24T15:44:35;13.90;;;7.65;;
36651;SDS011;53334;51.976;20.144;2023-08-24T15:47:08;13.82;;;7.72;;